createdAt,value
2018-07-26T00:01:46.700Z,20.19
2018-07-26T00:04:16.321Z,20.16
2018-07-26T00:06:45.941Z,20.13
2018-07-26T00:09:15.623Z,20.08
2018-07-26T00:11:45.271Z,20.04
2018-07-26T00:14:14.966Z,19.99
2018-07-26T00:16:44.739Z,19.94
2018-07-26T00:19:14.422Z,19.93
2018-07-26T00:21:44.156Z,19.87
2018-07-26T00:24:13.765Z,19.83
2018-07-26T00:26:43.415Z,19.81
2018-07-26T00:29:13.204Z,19.77
2018-07-26T00:31:42.877Z,19.78
2018-07-26T00:34:12.573Z,19.70
2018-07-26T00:36:42.220Z,19.67
2018-07-26T00:39:12.420Z,19.66
2018-07-26T00:41:42.161Z,19.66
2018-07-26T00:44:11.836Z,19.64
2018-07-26T00:46:41.570Z,19.64
2018-07-26T00:49:12.533Z,19.61
2018-07-26T00:51:42.184Z,19.59
2018-07-26T00:54:11.975Z,19.56
2018-07-26T00:56:41.620Z,19.51
2018-07-26T00:59:11.302Z,19.46
2018-07-26T01:01:41.200Z,19.44
2018-07-26T01:04:10.860Z,19.41
2018-07-26T01:06:40.626Z,19.38
2018-07-26T01:09:11.786Z,19.36
2018-07-26T01:11:41.499Z,19.27
2018-07-26T01:14:11.193Z,19.29
2018-07-26T01:16:40.862Z,19.26
2018-07-26T01:19:10.789Z,19.22
2018-07-26T01:21:40.456Z,19.21
2018-07-26T01:24:10.159Z,19.18
2018-07-26T01:26:39.938Z,19.17
2018-07-26T01:29:09.638Z,19.18
2018-07-26T01:31:39.305Z,19.17
2018-07-26T01:34:08.974Z,19.11
2018-07-26T01:36:38.699Z,19.14
2018-07-26T01:39:09.240Z,19.14
2018-07-26T01:41:38.946Z,19.13
2018-07-26T01:44:20.077Z,19.11
2018-07-26T01:46:49.791Z,19.11
2018-07-26T01:49:19.577Z,19.07
2018-07-26T01:51:49.273Z,19.09
2018-07-26T01:54:18.926Z,19.07
2018-07-26T01:56:48.589Z,19.02
2018-07-26T01:59:18.285Z,19.02
2018-07-26T02:01:47.946Z,19.04
2018-07-26T02:04:17.705Z,19.04
2018-07-26T02:06:47.389Z,19.04
2018-07-26T02:09:17.042Z,19.05
2018-07-26T02:11:46.721Z,19.05
2018-07-26T02:14:21.548Z,19.04
2018-07-26T02:16:51.219Z,19.02
2018-07-26T02:19:20.891Z,19.02
2018-07-26T02:21:50.548Z,19.01
2018-07-26T02:24:20.234Z,18.99
2018-07-26T02:26:49.958Z,18.97
2018-07-26T02:29:19.612Z,18.94
2018-07-26T02:31:49.384Z,18.95
2018-07-26T02:34:19.144Z,18.94
2018-07-26T02:36:48.871Z,18.94
2018-07-26T02:39:18.587Z,18.91
2018-07-26T02:41:48.281Z,18.90
2018-07-26T02:44:17.977Z,18.85
2018-07-26T02:46:47.752Z,18.85
2018-07-26T02:49:17.438Z,18.82
2018-07-26T02:51:47.113Z,18.78
2018-07-26T02:54:16.851Z,18.76
2018-07-26T02:56:46.506Z,18.71
2018-07-26T02:59:16.241Z,18.69
2018-07-26T03:01:45.891Z,18.73
2018-07-26T03:04:15.544Z,18.70
2018-07-26T03:06:45.337Z,18.66
2018-07-26T03:09:15.010Z,18.62
2018-07-26T03:11:44.717Z,18.61
2018-07-26T03:14:14.433Z,18.59
2018-07-26T03:16:44.108Z,18.57
2018-07-26T03:19:13.886Z,18.54
2018-07-26T03:21:43.563Z,18.52
2018-07-26T03:24:13.214Z,18.50
2018-07-26T03:26:42.936Z,18.46
2018-07-26T03:29:12.631Z,18.44
2018-07-26T03:31:42.283Z,18.41
2018-07-26T03:34:11.965Z,18.39
2018-07-26T03:36:41.603Z,18.39
2018-07-26T03:39:11.340Z,18.35
2018-07-26T03:41:40.997Z,18.33
2018-07-26T03:44:10.776Z,18.30
2018-07-26T03:46:40.444Z,18.30
2018-07-26T03:49:10.115Z,18.31
2018-07-26T03:51:39.782Z,18.31
2018-07-26T03:54:09.501Z,18.26
2018-07-26T03:56:39.154Z,18.26
2018-07-26T03:59:08.865Z,18.28
2018-07-26T04:01:38.586Z,18.30
2018-07-26T04:04:09.571Z,18.28
2018-07-26T04:06:39.686Z,18.29
2018-07-26T04:09:12.581Z,18.34
2018-07-26T04:11:43.409Z,18.35
2018-07-26T04:14:13.182Z,18.36
2018-07-26T04:16:42.898Z,18.40
2018-07-26T04:19:12.871Z,18.43
2018-07-26T04:21:42.553Z,18.46
2018-07-26T04:24:12.257Z,18.47
2018-07-26T04:26:41.993Z,18.49
2018-07-26T04:29:11.650Z,18.52
2018-07-26T04:31:41.349Z,18.56
2018-07-26T04:34:11.010Z,18.59
2018-07-26T04:36:40.677Z,18.64
2018-07-26T04:39:11.026Z,18.69
2018-07-26T04:41:40.739Z,18.75
2018-07-26T04:44:10.425Z,18.81
2018-07-26T04:46:40.119Z,18.83
2018-07-26T04:49:09.805Z,18.88
2018-07-26T04:51:39.490Z,18.94
2018-07-26T04:54:09.189Z,19.02
2018-07-26T04:56:38.911Z,19.08
2018-07-26T04:59:08.614Z,19.15
2018-07-26T05:01:38.431Z,19.23
2018-07-26T05:04:08.248Z,19.29
2018-07-26T05:06:38.084Z,19.37
2018-07-26T05:09:10.206Z,19.45
2018-07-26T05:11:39.941Z,19.54
2018-07-26T05:14:10.144Z,19.62
2018-07-26T05:16:40.648Z,19.72
2018-07-26T05:19:10.377Z,19.77
2018-07-26T05:21:40.028Z,19.85
2018-07-26T05:24:10.813Z,19.93
2018-07-26T05:26:40.501Z,20.01
2018-07-26T05:29:10.182Z,20.08
2018-07-26T05:31:39.831Z,20.17
2018-07-26T05:34:14.758Z,20.25
2018-07-26T05:36:44.425Z,20.35
2018-07-26T05:39:14.609Z,20.43
2018-07-26T05:41:44.273Z,20.52
2018-07-26T05:44:13.962Z,20.60
2018-07-26T05:46:43.770Z,20.67
2018-07-26T05:49:13.701Z,20.75
2018-07-26T05:51:43.414Z,20.84
2018-07-26T05:54:13.097Z,20.91
2018-07-26T05:56:42.771Z,21.00
2018-07-26T05:59:12.708Z,21.10
2018-07-26T06:01:42.414Z,21.18
2018-07-26T06:04:12.142Z,21.28
2018-07-26T06:06:41.873Z,21.39
2018-07-26T06:09:12.510Z,21.56
2018-07-26T06:11:42.757Z,21.66
2018-07-26T06:14:12.401Z,21.79
2018-07-26T06:16:42.433Z,21.91
2018-07-26T06:19:12.116Z,22.05
2018-07-26T06:21:41.781Z,22.17
2018-07-26T06:24:11.495Z,22.26
2018-07-26T06:26:41.143Z,22.39
2018-07-26T06:29:10.868Z,22.53
2018-07-26T06:31:40.530Z,22.69
2018-07-26T06:34:10.369Z,22.79
2018-07-26T06:36:40.014Z,22.96
2018-07-26T06:39:11.710Z,23.10
2018-07-26T06:41:41.596Z,23.25
2018-07-26T06:44:11.287Z,23.37
2018-07-26T06:46:41.048Z,23.53
2018-07-26T06:49:10.761Z,23.76
2018-07-26T06:51:40.459Z,23.88
2018-07-26T06:54:10.143Z,23.99
2018-07-26T06:56:39.948Z,24.08
2018-07-26T06:59:09.586Z,24.23
2018-07-26T07:01:39.244Z,24.44
2018-07-26T07:04:09.205Z,24.57
2018-07-26T07:06:38.854Z,24.72
2018-07-26T07:09:10.664Z,24.82
2018-07-26T07:11:40.731Z,24.94
2018-07-26T07:14:10.461Z,25.05
2018-07-26T07:16:40.183Z,25.23
2018-07-26T07:19:09.930Z,25.34
2018-07-26T07:21:39.589Z,25.48
2018-07-26T07:24:09.500Z,25.61
2018-07-26T07:26:39.147Z,25.73
2018-07-26T07:29:09.030Z,25.87
2018-07-26T07:31:38.672Z,25.99
2018-07-26T07:34:08.417Z,26.17
2018-07-26T07:36:38.178Z,26.28
2018-07-26T07:39:10.407Z,26.41
2018-07-26T07:41:40.289Z,26.50
2018-07-26T07:44:10.420Z,26.62
2018-07-26T07:46:40.641Z,26.68
2018-07-26T07:49:10.252Z,26.86
2018-07-26T07:51:39.893Z,27.01
2018-07-26T07:54:09.517Z,27.19
2018-07-26T07:56:39.183Z,27.34
2018-07-26T07:59:08.992Z,27.47
2018-07-26T08:01:38.691Z,27.63
2018-07-26T08:04:08.399Z,27.75
2018-07-26T08:06:38.155Z,27.83
2018-07-26T08:09:10.076Z,27.95
2018-07-26T08:11:39.780Z,28.15
2018-07-26T08:14:10.008Z,28.31
2018-07-26T08:16:39.777Z,28.47
2018-07-26T08:19:09.463Z,28.44
2018-07-26T08:21:39.111Z,28.53
2018-07-26T08:24:08.852Z,28.62
2018-07-26T08:26:38.507Z,28.80
2018-07-26T08:29:08.268Z,28.85
2018-07-26T08:31:37.941Z,28.95
2018-07-26T08:34:07.653Z,29.09
2018-07-26T08:36:37.287Z,29.24
2018-07-26T08:39:10.119Z,29.27
2018-07-26T08:41:39.766Z,29.33
2018-07-26T08:44:09.440Z,29.43
2018-07-26T08:46:39.104Z,29.49
2018-07-26T08:49:09.241Z,29.51
2018-07-26T08:51:38.934Z,29.53
2018-07-26T08:54:08.783Z,29.73
2018-07-26T08:56:40.995Z,29.81
2018-07-26T08:59:16.760Z,29.88
2018-07-26T09:01:46.825Z,30.12
2018-07-26T09:04:16.457Z,30.15
2018-07-26T09:06:46.253Z,30.17
2018-07-26T09:09:15.904Z,30.24
2018-07-26T09:11:45.673Z,30.42
2018-07-26T09:14:15.889Z,30.55
2018-07-26T09:16:45.528Z,30.64
2018-07-26T09:19:15.338Z,30.69
2018-07-26T09:21:45.141Z,30.84
2018-07-26T09:24:14.848Z,30.82
2018-07-26T09:26:44.485Z,30.82
2018-07-26T09:29:14.136Z,30.85
2018-07-26T09:31:43.895Z,30.90
2018-07-26T09:34:13.617Z,30.93
2018-07-26T09:36:43.245Z,31.05
2018-07-26T09:39:15.169Z,31.08
2018-07-26T09:41:45.087Z,31.17
2018-07-26T09:44:14.797Z,31.19
2018-07-26T09:46:44.454Z,31.18
2018-07-26T09:49:14.280Z,31.24
2018-07-26T09:51:43.961Z,31.35
2018-07-26T09:54:13.593Z,31.49
2018-07-26T09:56:43.432Z,31.63
2018-07-26T09:59:13.168Z,31.70
2018-07-26T10:01:42.837Z,31.84
2018-07-26T10:04:12.525Z,31.80
2018-07-26T10:06:42.186Z,31.66
2018-07-26T10:09:12.716Z,31.68
2018-07-26T10:11:42.347Z,31.78
2018-07-26T10:14:11.994Z,32.06
2018-07-26T10:16:41.670Z,32.40
2018-07-26T10:19:11.333Z,32.45
2018-07-26T10:21:41.014Z,32.54
2018-07-26T10:24:10.660Z,32.52
2018-07-26T10:26:40.278Z,32.73
2018-07-26T10:29:09.910Z,32.84
2018-07-26T10:31:39.573Z,32.81
2018-07-26T10:34:09.219Z,32.81
2018-07-26T10:36:38.863Z,32.84
2018-07-26T10:39:10.181Z,32.94
2018-07-26T10:41:39.946Z,33.10
2018-07-26T10:44:09.634Z,33.24
2018-07-26T10:46:39.357Z,33.46
2018-07-26T10:49:09.074Z,33.51
2018-07-26T10:51:38.941Z,33.59
2018-07-26T10:54:08.552Z,33.62
2018-07-26T10:56:38.188Z,33.58
2018-07-26T10:59:07.856Z,33.74
2018-07-26T11:01:37.489Z,33.70
2018-07-26T11:04:07.159Z,33.66
2018-07-26T11:06:36.833Z,33.58
2018-07-26T11:09:08.908Z,33.65
2018-07-26T11:11:38.636Z,33.81
2018-07-26T11:14:08.674Z,33.94
2018-07-26T11:16:38.605Z,34.13
2018-07-26T11:19:08.388Z,34.30
2018-07-26T11:21:37.992Z,34.48
2018-07-26T11:24:07.665Z,34.63
2018-07-26T11:26:37.297Z,34.76
2018-07-26T11:29:06.996Z,34.78
2018-07-26T11:31:36.629Z,34.83
2018-07-26T11:34:06.477Z,34.82
2018-07-26T11:36:36.186Z,34.85
2018-07-26T11:39:08.881Z,34.98
2018-07-26T11:41:38.813Z,34.96
2018-07-26T11:44:08.488Z,35.01
2018-07-26T11:46:38.120Z,35.18
2018-07-26T11:49:07.768Z,35.31
2018-07-26T11:51:37.440Z,35.45
2018-07-26T11:54:07.143Z,35.48
2018-07-26T11:56:37.516Z,35.63
2018-07-26T11:59:07.172Z,35.69
2018-07-26T12:01:43.451Z,35.83
2018-07-26T12:04:13.182Z,35.84
2018-07-26T12:06:43.013Z,35.97
2018-07-26T12:09:12.638Z,36.18
2018-07-26T12:11:42.288Z,36.09
2018-07-26T12:14:12.404Z,36.04
2018-07-26T12:16:42.068Z,36.33
2018-07-26T12:19:11.676Z,36.77
2018-07-26T12:21:41.315Z,37.08
2018-07-26T12:24:10.989Z,37.36
2018-07-26T12:26:40.609Z,37.91
2018-07-26T12:29:10.289Z,38.39
2018-07-26T12:31:39.914Z,38.81
2018-07-26T12:34:09.552Z,39.27
2018-07-26T12:36:39.197Z,40.09
2018-07-26T12:39:11.320Z,41.09
2018-07-26T12:41:41.045Z,41.91
2018-07-26T12:44:10.961Z,42.92
2018-07-26T12:46:40.673Z,43.91
2018-07-26T12:49:10.320Z,45.25
2018-07-26T12:51:39.954Z,46.80
2018-07-26T12:54:09.611Z,47.82
2018-07-26T12:56:39.236Z,48.97
2018-07-26T12:59:09.005Z,49.88
2018-07-26T13:01:38.690Z,50.64
2018-07-26T13:04:08.303Z,50.82
2018-07-26T13:06:38.064Z,49.87
2018-07-26T13:09:10.213Z,48.71
2018-07-26T13:11:39.864Z,47.43
2018-07-26T13:14:09.938Z,46.13
2018-07-26T13:16:39.649Z,44.66
2018-07-26T13:19:09.293Z,43.75
2018-07-26T13:21:39.015Z,43.02
2018-07-26T13:24:08.807Z,42.45
2018-07-26T13:26:38.479Z,41.61
2018-07-26T13:29:08.175Z,40.59
2018-07-26T13:31:37.817Z,40.10
2018-07-26T13:34:07.568Z,39.59
2018-07-26T13:36:37.289Z,39.52
2018-07-26T13:39:10.853Z,39.51
2018-07-26T13:41:40.516Z,39.55
2018-07-26T13:44:10.160Z,39.55
2018-07-26T13:46:39.977Z,39.43
2018-07-26T13:49:09.658Z,39.22
2018-07-26T13:51:55.977Z,39.15
2018-07-26T13:54:25.616Z,39.30
2018-07-26T13:56:55.252Z,39.26
2018-07-26T13:59:24.961Z,39.25
2018-07-26T14:01:54.569Z,39.20
2018-07-26T14:04:24.184Z,39.22
2018-07-26T14:06:53.829Z,39.15
2018-07-26T14:09:23.469Z,39.12
2018-07-26T14:11:53.140Z,39.03
2018-07-26T14:14:22.813Z,38.86
2018-07-26T14:16:52.447Z,38.83
2018-07-26T14:19:22.230Z,38.68
2018-07-26T14:21:51.925Z,38.68
2018-07-26T14:24:23.460Z,38.58
2018-07-26T14:26:53.884Z,38.44
2018-07-26T14:29:23.719Z,38.42
2018-07-26T14:31:53.331Z,38.52
2018-07-26T14:34:22.996Z,38.70
2018-07-26T14:36:52.761Z,38.87
2018-07-26T14:39:22.463Z,39.06
2018-07-26T14:41:52.116Z,38.84
2018-07-26T14:44:21.851Z,38.97
2018-07-26T14:46:51.547Z,39.03
2018-07-26T14:49:21.207Z,39.17
2018-07-26T14:51:50.891Z,39.05
2018-07-26T14:54:20.483Z,39.21
2018-07-26T14:56:50.112Z,39.29
2018-07-26T14:59:19.825Z,39.53
2018-07-26T15:01:49.428Z,39.50
2018-07-26T15:04:19.153Z,39.63
2018-07-26T15:06:48.833Z,39.60
2018-07-26T15:09:18.487Z,39.73
2018-07-26T15:11:48.585Z,39.73
2018-07-26T15:14:18.647Z,39.91
2018-07-26T15:16:48.284Z,39.93
2018-07-26T15:19:17.903Z,40.04
2018-07-26T15:21:47.542Z,40.08
2018-07-26T15:24:17.325Z,40.23
2018-07-26T15:26:46.959Z,40.65
2018-07-26T15:29:16.743Z,40.84
2018-07-26T15:31:46.406Z,40.92
2018-07-26T15:34:16.026Z,41.18
2018-07-26T15:36:45.841Z,41.60
2018-07-26T15:39:15.504Z,42.06
2018-07-26T15:41:45.708Z,42.51
2018-07-26T15:44:16.257Z,43.98
2018-07-26T15:46:45.900Z,46.03
2018-07-26T15:49:15.627Z,46.10
2018-07-26T15:51:45.281Z,46.74
2018-07-26T15:54:15.024Z,50.71
2018-07-26T15:56:44.704Z,53.08
2018-07-26T15:59:14.350Z,52.35
2018-07-26T16:01:44.103Z,53.93
2018-07-26T16:04:13.735Z,56.34
2018-07-26T16:06:43.442Z,57.02
2018-07-26T16:09:13.356Z,57.59
2018-07-26T16:11:43.045Z,58.24
2018-07-26T16:14:12.816Z,58.41
2018-07-26T16:16:42.510Z,58.67
2018-07-26T16:19:12.163Z,59.17
2018-07-26T16:21:41.829Z,59.30
2018-07-26T16:24:11.488Z,58.97
2018-07-26T16:26:41.221Z,59.07
2018-07-26T16:29:10.866Z,58.93
2018-07-26T16:31:40.500Z,58.73
2018-07-26T16:34:10.150Z,57.29
2018-07-26T16:36:39.800Z,51.73
2018-07-26T16:39:11.285Z,47.78
2018-07-26T16:41:40.996Z,44.97
2018-07-26T16:44:10.688Z,43.00
2018-07-26T16:46:40.578Z,41.12
2018-07-26T16:49:10.244Z,39.71
2018-07-26T16:51:39.929Z,38.59
2018-07-26T16:54:09.576Z,37.51
2018-07-26T16:56:39.373Z,36.55
2018-07-26T16:59:09.201Z,35.61
2018-07-26T17:01:38.853Z,34.96
2018-07-26T17:04:08.484Z,34.41
2018-07-26T17:06:38.178Z,33.90
2018-07-26T17:09:09.906Z,33.42
2018-07-26T17:11:39.910Z,33.00
2018-07-26T17:14:09.577Z,32.62
2018-07-26T17:16:39.333Z,32.30
2018-07-26T17:19:09.087Z,31.97
2018-07-26T17:21:38.791Z,31.70
2018-07-26T17:24:08.665Z,31.47
2018-07-26T17:26:38.408Z,31.33
2018-07-26T17:29:08.644Z,31.15
2018-07-26T17:31:38.248Z,30.97
2018-07-26T17:34:08.251Z,30.80
2018-07-26T17:36:37.892Z,30.65
2018-07-26T17:39:09.510Z,30.44
2018-07-26T17:41:39.441Z,30.37
2018-07-26T17:44:09.302Z,30.26
2018-07-26T17:46:38.981Z,30.10
2018-07-26T17:49:08.658Z,29.91
2018-07-26T17:51:38.365Z,29.81
2018-07-26T17:54:08.122Z,29.73
2018-07-26T17:56:37.850Z,29.60
2018-07-26T17:59:07.650Z,29.48
2018-07-26T18:01:37.311Z,29.41
2018-07-26T18:04:07.028Z,29.29
2018-07-26T18:06:36.756Z,29.16
2018-07-26T18:09:07.980Z,29.03
2018-07-26T18:11:37.630Z,28.89
2018-07-26T18:14:07.473Z,28.81
2018-07-26T18:16:37.127Z,28.71
2018-07-26T18:19:06.905Z,28.61
2018-07-26T18:21:36.592Z,28.50
2018-07-26T18:24:06.453Z,28.39
2018-07-26T18:26:36.113Z,28.27
2018-07-26T18:29:05.912Z,28.16
2018-07-26T18:31:35.701Z,28.05
2018-07-26T18:34:05.264Z,27.94
2018-07-26T18:36:34.895Z,27.86
2018-07-26T18:39:07.282Z,27.74
2018-07-26T18:41:37.596Z,27.62
2018-07-26T18:44:07.927Z,27.51
2018-07-26T18:46:38.143Z,27.37
2018-07-26T18:49:08.998Z,27.27
2018-07-26T18:51:38.732Z,27.12
2018-07-26T18:54:09.126Z,27.02
2018-07-26T18:56:38.820Z,26.84
2018-07-26T18:59:08.464Z,26.72
2018-07-26T19:01:38.357Z,26.58
2018-07-26T19:04:08.054Z,26.42
2018-07-26T19:06:37.769Z,26.29
2018-07-26T19:09:10.247Z,26.17
2018-07-26T19:11:39.944Z,26.06
2018-07-26T19:14:09.624Z,25.91
2018-07-26T19:16:39.521Z,25.77
2018-07-26T19:19:09.198Z,25.65
2018-07-26T19:21:38.925Z,25.50
2018-07-26T19:24:08.700Z,25.40
2018-07-26T19:26:38.417Z,25.29
2018-07-26T19:29:08.132Z,25.21
2018-07-26T19:31:38.256Z,25.09
2018-07-26T19:34:08.057Z,24.99
2018-07-26T19:36:37.736Z,24.90
2018-07-26T19:39:11.796Z,24.79
2018-07-26T19:41:42.213Z,24.72
2018-07-26T19:44:11.938Z,24.64
2018-07-26T19:46:41.639Z,24.55
2018-07-26T19:49:11.341Z,24.46
2018-07-26T19:51:41.082Z,24.34
2018-07-26T19:54:10.912Z,24.28
2018-07-26T19:56:40.541Z,24.21
2018-07-26T19:59:10.260Z,24.15
2018-07-26T20:01:40.174Z,24.11
2018-07-26T20:04:09.863Z,24.03
2018-07-26T20:06:39.694Z,23.96
2018-07-26T20:09:10.377Z,23.89
2018-07-26T20:11:40.065Z,23.85
2018-07-26T20:14:09.715Z,23.82
2018-07-26T20:16:40.265Z,23.75
2018-07-26T20:19:10.588Z,23.68
2018-07-26T20:21:40.876Z,23.63
2018-07-26T20:24:10.715Z,23.56
2018-07-26T20:26:40.364Z,23.46
2018-07-26T20:29:09.995Z,23.40
2018-07-26T20:31:39.699Z,23.35
2018-07-26T20:34:09.456Z,23.31
2018-07-26T20:36:39.229Z,23.27
2018-07-26T20:39:11.751Z,23.22
2018-07-26T20:41:41.628Z,23.18
2018-07-26T20:44:11.875Z,23.12
2018-07-26T20:46:41.636Z,23.10
2018-07-26T20:49:11.424Z,23.05
2018-07-26T20:51:41.060Z,23.06
2018-07-26T20:54:10.821Z,23.01
2018-07-26T20:56:40.466Z,22.96
2018-07-26T20:59:10.096Z,22.87
2018-07-26T21:01:39.845Z,22.83
2018-07-26T21:04:09.484Z,22.81
2018-07-26T21:06:39.132Z,22.78
2018-07-26T21:09:12.129Z,22.70
2018-07-26T21:11:41.927Z,22.68
2018-07-26T21:14:11.613Z,22.63
2018-07-26T21:16:41.300Z,22.59
2018-07-26T21:19:11.444Z,22.55
2018-07-26T21:21:41.122Z,22.53
2018-07-26T21:24:10.916Z,22.49
2018-07-26T21:26:40.553Z,22.46
2018-07-26T21:29:10.430Z,22.44
2018-07-26T21:31:40.139Z,22.42
2018-07-26T21:34:09.756Z,22.36
2018-07-26T21:36:39.407Z,22.32
2018-07-26T21:39:10.609Z,22.28
2018-07-26T21:41:40.609Z,22.22
2018-07-26T21:44:10.299Z,22.19
2018-07-26T21:46:39.983Z,22.14
2018-07-26T21:49:09.686Z,22.10
2018-07-26T21:51:39.350Z,22.05
2018-07-26T21:54:08.995Z,22.02
2018-07-26T21:56:38.654Z,21.96
2018-07-26T21:59:08.331Z,21.91
2018-07-26T22:01:37.992Z,21.90
2018-07-26T22:04:07.853Z,21.84
2018-07-26T22:06:37.653Z,21.80
2018-07-26T22:09:09.789Z,21.77
2018-07-26T22:11:39.517Z,21.72
2018-07-26T22:14:09.581Z,21.70
2018-07-26T22:16:39.296Z,21.69
2018-07-26T22:19:09.010Z,21.64
2018-07-26T22:21:38.776Z,21.60
2018-07-26T22:24:08.467Z,21.56
2018-07-26T22:26:38.215Z,21.52
2018-07-26T22:29:08.226Z,21.51
2018-07-26T22:31:37.901Z,21.47
2018-07-26T22:34:07.570Z,21.45
2018-07-26T22:36:37.371Z,21.45
2018-07-26T22:39:08.985Z,21.38
2018-07-26T22:41:38.697Z,21.34
2018-07-26T22:44:08.516Z,21.32
2018-07-26T22:46:38.417Z,21.29
2018-07-26T22:49:08.121Z,21.25
2018-07-26T22:51:37.928Z,21.23
2018-07-26T22:54:07.758Z,21.21
2018-07-26T22:56:37.517Z,21.17
2018-07-26T22:59:08.241Z,21.15
2018-07-26T23:01:37.999Z,21.16
2018-07-26T23:04:07.762Z,21.12
2018-07-26T23:06:37.466Z,21.05
2018-07-26T23:09:09.245Z,20.97
2018-07-26T23:11:38.982Z,20.97
2018-07-26T23:14:08.786Z,20.95
2018-07-26T23:16:38.577Z,20.90
2018-07-26T23:19:08.288Z,20.89
2018-07-26T23:21:38.136Z,20.88
2018-07-26T23:24:07.866Z,20.88
2018-07-26T23:26:37.621Z,20.82
2018-07-26T23:29:07.469Z,20.76
2018-07-26T23:31:37.197Z,20.73
2018-07-26T23:34:06.939Z,20.70
2018-07-26T23:36:36.736Z,20.68
2018-07-26T23:39:08.613Z,20.66
2018-07-26T23:41:38.420Z,20.59
2018-07-26T23:44:08.849Z,20.56
2018-07-26T23:46:39.098Z,20.53
2018-07-26T23:49:08.807Z,20.52
2018-07-26T23:51:38.557Z,20.51
2018-07-26T23:54:08.462Z,20.44
2018-07-26T23:56:38.186Z,20.39
2018-07-26T23:59:07.970Z,20.35
